Time;durP1;ratioP1;P1;durP2;ratioP2;P2;SDS_P1;SDS_P2;PMS_P1;PMS_P2;Temp;Humidity;BMP_temperature;BMP_pressure;BME280_temperature;BME280_humidity;BME280_pressure;Samples;Min_cycle;Max_cycle;Signal;HPM_P1;HPM_P2
2024/04/04 00:00:02;;;;;;;0.50;0.50;;;;;;;10.16;100.00;96454.44;29395;229;63009;-91
2024/04/04 00:00:40;;;;;;;0.40;0.40;;;;;;;10.28;100.00;96471.06;29395;200;63004;-90
2024/04/04 00:01:11;;;;;;;0.50;0.50;;;;;;;10.30;100.00;96468.84;29395;241;63009;-90
2024/04/04 00:01:42;;;;;;;0.50;0.50;;;;;;;10.27;100.00;96472.16;29395;209;63004;-91
2024/04/04 00:02:13;;;;;;;0.50;0.50;;;;;;;10.25;100.00;96466.25;29395;257;63008;-91
2024/04/04 00:02:45;;;;;;;0.50;0.50;;;;;;;10.23;100.00;96468.44;29394;239;64008;-90
2024/04/04 00:03:16;;;;;;;0.50;0.50;;;;;;;10.21;100.00;96476.06;29395;199;63008;-90
2024/04/04 00:03:50;;;;;;;0.50;0.50;;;;;;;10.14;100.00;96460.16;29395;211;63005;-90
2024/04/04 00:04:21;;;;;;;0.65;0.65;;;;;;;10.19;100.00;96472.81;29395;301;63009;-90
2024/04/04 00:05:03;;;;;;;0.50;0.50;;;;;;;10.19;100.00;96472.81;29395;259;63005;-90
2024/04/04 00:05:34;;;;;;;0.50;0.50;;;;;;;10.23;100.00;96465.72;29395;214;63009;-89
2024/04/04 00:06:08;;;;;;;0.50;0.50;;;;;;;10.22;100.00;96472.25;29395;213;63005;-88
2024/04/04 00:06:40;;;;;;;0.60;0.60;;;;;;;10.24;100.00;96467.34;29395;228;63009;-91
2024/04/04 00:07:11;;;;;;;0.50;0.50;;;;;;;10.26;100.00;96471.37;29395;235;63005;-88
2024/04/04 00:07:44;;;;;;;0.50;0.50;;;;;;;10.26;100.00;96470.56;29395;225;63009;-89
2024/04/04 00:08:17;;;;;;;0.50;0.50;;;;;;;10.26;100.00;96467.84;29394;215;64009;-91
2024/04/04 00:08:48;;;;;;;0.50;0.50;;;;;;;10.23;100.00;96463.81;29395;199;63009;-91
2024/04/04 00:09:20;;;;;;;0.50;0.50;;;;;;;10.21;100.00;96468.75;29395;254;63004;-91
2024/04/04 00:09:52;;;;;;;0.50;0.50;;;;;;;10.19;100.00;96464.69;29395;247;63020;-89
2024/04/04 00:10:24;;;;;;;0.50;0.50;;;;;;;10.18;100.00;96463.09;29395;196;63004;-91
2024/04/04 00:11:07;;;;;;;0.50;0.50;;;;;;;10.16;100.00;96466.09;29395;407;63009;-88
2024/04/04 00:11:38;;;;;;;0.50;0.50;;;;;;;10.17;100.00;96469.59;29395;244;63005;-89
2024/04/04 00:12:10;;;;;;;0.50;0.50;;;;;;;10.18;100.00;96465.78;29395;236;63009;-90
2024/04/04 00:12:42;;;;;;;0.50;0.50;;;;;;;10.20;100.00;96469.03;29395;234;63005;-90
2024/04/04 00:13:18;;;;;;;0.40;0.40;;;;;;;10.19;100.00;96468.25;29395;260;63009;-91
2024/04/04 00:13:49;;;;;;;0.50;0.50;;;;;;;10.21;100.00;96470.66;29394;216;64009;-90
2024/04/04 00:14:20;;;;;;;0.50;0.50;;;;;;;10.20;100.00;96464.41;29395;341;63009;-88
2024/04/04 00:14:51;;;;;;;0.50;0.50;;;;;;;10.11;100.00;96459.97;29395;247;63004;-92
2024/04/04 00:15:23;;;;;;;0.50;0.50;;;;;;;10.18;100.00;96476.62;29395;207;63009;-89
2024/04/04 00:15:54;;;;;;;0.50;0.50;;;;;;;10.17;100.00;96469.59;29395;470;63004;-90
2024/04/04 00:16:27;;;;;;;0.50;0.50;;;;;;;10.15;100.00;96471.81;29395;228;63009;-90
2024/04/04 00:16:59;;;;;;;0.50;0.50;;;;;;;10.14;100.00;96475.62;29395;202;63004;-91
2024/04/04 00:17:30;;;;;;;0.50;0.50;;;;;;;10.14;100.00;96475.62;29395;267;63008;-91
2024/04/04 00:18:02;;;;;;;0.50;0.50;;;;;;;10.16;100.00;96468.00;29395;280;63004;-91
2024/04/04 00:18:33;;;;;;;0.50;0.50;;;;;;;10.19;100.00;96478.25;29395;226;63005;-91
2024/04/04 00:19:04;;;;;;;0.60;0.60;;;;;;;10.19;100.00;96472.81;29394;250;64009;-89
2024/04/04 00:19:36;;;;;;;0.50;0.50;;;;;;;10.20;100.00;96474.47;29395;243;63009;-91
2024/04/04 00:20:14;;;;;;;0.50;0.50;;;;;;;10.20;100.00;96475.28;29395;199;63005;-90
2024/04/04 00:20:46;;;;;;;0.50;0.50;;;;;;;10.21;100.00;96465.22;29395;311;63009;-89
2024/04/04 00:21:18;;;;;;;0.50;0.50;;;;;;;10.20;100.00;96469.03;29395;205;63005;-90
2024/04/04 00:21:49;;;;;;;0.50;0.50;;;;;;;10.19;100.00;96468.25;29395;219;63009;-89
2024/04/04 00:22:20;;;;;;;0.50;0.50;;;;;;;10.18;100.00;96465.78;29395;216;63004;-88
2024/04/04 00:22:53;;;;;;;0.70;0.70;;;;;;;10.21;100.00;96470.66;29395;248;63009;-90
2024/04/04 00:23:25;;;;;;;0.50;0.50;;;;;;;10.19;100.00;96461.97;29395;246;63004;-91
2024/04/04 00:23:58;;;;;;;0.50;0.50;;;;;;;10.24;100.00;96473.56;29395;471;63009;-91
2024/04/04 00:24:30;;;;;;;0.50;0.50;;;;;;;10.26;100.00;96467.84;29394;249;64009;-89
2024/04/04 00:25:02;;;;;;;0.50;0.50;;;;;;;10.24;100.00;96472.75;29395;248;63004;-91
2024/04/04 00:25:34;;;;;;;0.50;0.50;;;;;;;10.24;100.00;96470.06;29395;202;63012;-89
2024/04/04 00:26:05;;;;;;;0.50;0.50;;;;;;;10.26;100.00;96468.66;29395;226;63009;-90
2024/04/04 00:26:36;;;;;;;0.50;0.50;;;;;;;10.31;100.00;96475.88;29395;236;63010;-91
2024/04/04 00:27:08;;;;;;;0.50;0.50;;;;;;;10.35;100.00;96471.47;29395;261;63009;-89
2024/04/04 00:27:39;;;;;;;0.50;0.50;;;;;;;10.38;100.00;96460.03;29395;203;63005;-92
2024/04/04 00:28:14;;;;;;;0.50;0.50;;;;;;;10.39;100.00;96467.06;29395;211;63009;-90
2024/04/04 00:28:46;;;;;;;0.47;0.47;;;;;;;10.37;100.00;96472.78;29395;257;63005;-91
2024/04/04 00:29:17;;;;;;;0.50;0.50;;;;;;;10.34;100.00;96467.94;29394;217;64013;-91
2024/04/04 00:29:49;;;;;;;0.50;0.50;;;;;;;10.30;100.00;96471.56;29395;227;63005;-91
2024/04/04 00:30:20;;;;;;;0.50;0.50;;;;;;;10.25;100.00;96466.25;29395;223;63009;-92
2024/04/04 00:30:51;;;;;;;0.50;0.50;;;;;;;10.23;100.00;96463.03;29395;252;63004;-90
2024/04/04 00:31:23;;;;;;;0.50;0.50;;;;;;;10.25;100.00;96463.53;29395;214;63009;-91
2024/04/04 00:31:54;;;;;;;0.60;0.60;;;;;;;10.27;100.00;96464.03;29396;227;63004;-90
2024/04/04 00:32:25;;;;;;;0.50;0.50;;;;;;;10.32;100.00;96466.66;29396;206;63008;-91
2024/04/04 00:32:57;;;;;;;0.50;0.50;;;;;;;10.36;99.99;96473.88;29396;196;63004;-89
2024/04/04 00:33:28;;;;;;;0.50;0.50;;;;;;;10.37;99.71;96471.97;29395;262;64014;-90
2024/04/04 00:33:59;;;;;;;0.50;0.50;;;;;;;10.35;99.78;96461.44;29396;206;63005;-90
2024/04/04 00:34:30;;;;;;;0.50;0.50;;;;;;;10.34;99.85;96469.88;29396;259;63016;-91
2024/04/04 00:35:04;;;;;;;0.50;0.50;;;;;;;10.32;100.00;96481.00;29396;212;63005;-89
2024/04/04 00:35:35;;;;;;;0.50;0.50;;;;;;;10.30;100.00;96474.28;29396;241;63009;-89
2024/04/04 00:36:07;;;;;;;0.50;0.50;;;;;;;10.31;100.00;96471.25;29395;249;64009;-89
2024/04/04 00:36:39;;;;;;;0.50;0.50;;;;;;;10.30;100.00;96468.84;29396;239;63009;-89
2024/04/04 00:37:10;;;;;;;0.50;0.50;;;;;;;10.28;100.00;96466.44;29396;203;63005;-91
2024/04/04 00:37:44;;;;;;;0.50;0.50;;;;;;;10.26;100.00;96467.84;29396;244;63009;-90
2024/04/04 00:38:16;;;;;;;0.50;0.50;;;;;;;10.22;100.00;96483.09;29396;202;63004;-90
2024/04/04 00:38:47;;;;;;;0.50;0.50;;;;;;;10.20;100.00;96469.84;29396;329;63009;-89
2024/04/04 00:39:19;;;;;;;0.50;0.50;;;;;;;10.19;100.00;96478.25;29396;241;63004;-91
2024/04/04 00:39:50;;;;;;;0.50;0.50;;;;;;;10.11;100.00;96465.37;29396;221;63009;-92
2024/04/04 00:40:22;;;;;;;0.50;0.50;;;;;;;10.20;100.00;96471.75;29396;227;63004;-92
2024/04/04 00:40:54;;;;;;;0.50;0.50;;;;;;;10.20;100.00;96474.47;29396;405;63009;-91
2024/04/04 00:41:26;;;;;;;0.50;0.50;;;;;;;10.18;100.00;96473.94;29395;281;64009;-90
2024/04/04 00:41:57;;;;;;;0.50;0.50;;;;;;;10.16;100.00;96470.72;29396;223;63009;-90
2024/04/04 00:42:28;;;;;;;0.50;0.50;;;;;;;10.14;100.00;96470.19;29396;196;63005;-90
2024/04/04 00:42:59;;;;;;;0.50;0.50;;;;;;;10.09;100.00;96469.19;29396;237;63009;-90
2024/04/04 00:43:31;;;;;;;0.50;0.50;;;;;;;10.07;100.00;96471.41;29396;217;63005;-90
2024/04/04 00:44:02;;;;;;;0.50;0.50;;;;;;;10.09;100.00;96474.63;29396;445;63009;-91
2024/04/04 00:44:34;;;;;;;0.50;0.50;;;;;;;10.11;100.00;96470.81;29396;324;63005;-92
2024/04/04 00:45:06;;;;;;;0.50;0.50;;;;;;;10.11;100.00;96471.59;29396;254;63009;-90
2024/04/04 00:45:38;;;;;;;0.50;0.50;;;;;;;10.16;100.00;96473.41;29396;224;63004;-91
2024/04/04 00:46:10;;;;;;;0.50;0.50;;;;;;;10.19;100.00;96472.81;29396;369;63009;-89
2024/04/04 00:46:41;;;;;;;0.50;0.50;;;;;;;10.19;100.00;96470.13;29395;241;64009;-90
2024/04/04 00:47:13;;;;;;;0.50;0.50;;;;;;;10.19;100.00;96478.25;29396;268;63009;-89
2024/04/04 00:47:47;;;;;;;0.50;0.50;;;;;;;10.19;100.00;96478.25;29396;202;63004;-90
2024/04/04 00:48:19;;;;;;;0.50;0.50;;;;;;;10.21;100.00;96476.06;29396;196;63009;-89
2024/04/04 00:48:51;;;;;;;0.50;0.50;;;;;;;10.22;100.00;96472.25;29396;223;63005;-89
2024/04/04 00:49:23;;;;;;;0.50;0.50;;;;;;;10.16;99.77;96451.72;29396;309;63009;-89
2024/04/04 00:49:55;;;;;;;0.43;0.43;;;;;;;10.25;99.80;96477.09;29396;467;63005;-92
2024/04/04 00:50:27;;;;;;;0.50;0.50;;;;;;;10.24;99.46;96478.19;29396;232;63009;-91
2024/04/04 00:50:59;;;;;;;0.50;0.50;;;;;;;10.22;99.65;96473.06;29396;249;63005;-90
2024/04/04 00:51:31;;;;;;;0.50;0.50;;;;;;;10.20;99.67;96479.87;29396;307;63009;-90
2024/04/04 00:52:08;;;;;;;0.50;0.50;;;;;;;10.18;100.00;96476.62;29395;387;64009;-90
2024/04/04 00:52:41;;;;;;;0.50;0.50;;;;;;;10.16;100.00;96484.25;29396;212;63009;-92
2024/04/04 00:53:14;;;;;;;0.50;0.50;;;;;;;10.15;100.00;96485.38;29396;273;63004;-91
2024/04/04 00:53:46;;;;;;;0.50;0.50;;;;;;;10.15;100.00;96488.09;29396;211;63009;-89
2024/04/04 00:54:19;;;;;;;0.50;0.50;;;;;;;10.16;100.00;96485.06;29396;347;63004;-91
2024/04/04 00:54:51;;;;;;;0.50;0.50;;;;;;;10.20;99.69;96483.41;29396;538;63009;-90
2024/04/04 00:55:22;;;;;;;0.50;0.50;;;;;;;10.24;99.51;96489.03;29395;202;64004;-90
2024/04/04 00:55:54;;;;;;;0.50;0.50;;;;;;;10.19;99.38;96479.09;29396;252;63009;-89
2024/04/04 00:56:26;;;;;;;0.50;0.50;;;;;;;10.21;99.56;96486.91;29396;324;63005;-91
2024/04/04 00:56:58;;;;;;;0.50;0.50;;;;;;;10.25;99.10;96493.34;29396;308;63009;-90
2024/04/04 00:57:30;;;;;;;0.50;0.50;;;;;;;10.23;99.09;96484.72;29395;202;64009;-91
2024/04/04 00:58:02;;;;;;;0.50;0.50;;;;;;;10.23;99.25;96485.50;29396;251;63009;-90
2024/04/04 00:58:35;;;;;;;0.50;0.50;;;;;;;10.22;99.71;96492.03;29396;198;63005;-91
2024/04/04 00:59:12;;;;;;;0.50;0.50;;;;;;;10.22;99.43;96483.09;29396;227;63009;-93
2024/04/04 00:59:45;;;;;;;0.50;0.50;;;;;;;10.24;99.63;96486.31;29396;364;63005;-91
2024/04/04 01:00:17;;;;;;;0.50;0.50;;;;;;;10.21;99.44;96492.34;29395;336;64013;-90
2024/04/04 01:00:49;;;;;;;0.50;0.50;;;;;;;10.17;99.62;96491.28;29396;238;63004;-89
2024/04/04 01:01:21;;;;;;;0.50;0.50;;;;;;;10.15;99.71;96490.78;29395;266;64013;-91
2024/04/04 01:01:53;;;;;;;0.50;0.50;;;;;;;10.15;100.00;96493.50;29396;418;63004;-90
2024/04/04 01:02:24;;;;;;;0.40;0.40;;;;;;;10.13;100.00;96495.72;29396;336;63009;-89
2024/04/04 01:02:56;;;;;;;0.50;0.50;;;;;;;10.11;100.00;96495.19;29396;196;63004;-90
2024/04/04 01:03:28;;;;;;;0.50;0.50;;;;;;;10.08;100.00;96494.69;29396;202;63009;-92
2024/04/04 01:03:59;;;;;;;0.50;0.50;;;;;;;10.05;100.00;96495.28;29396;254;63005;-90
2024/04/04 01:04:30;;;;;;;0.50;0.50;;;;;;;10.04;100.00;96496.41;29396;283;63014;-89
2024/04/04 01:05:02;;;;;;;0.50;0.50;;;;;;;10.01;100.00;96488.88;29396;222;63005;-91
2024/04/04 01:05:34;;;;;;;0.50;0.50;;;;;;;10.00;100.00;96492.69;29395;238;64013;-91
2024/04/04 01:06:05;;;;;;;0.50;0.50;;;;;;;9.99;100.00;96493.78;29396;205;63005;-90
2024/04/04 01:06:39;;;;;;;0.50;0.50;;;;;;;9.98;100.00;96489.47;29395;212;64013;-90
2024/04/04 01:07:14;;;;;;;0.50;0.50;;;;;;;9.96;100.00;96493.59;29396;203;63004;-91
2024/04/04 01:07:48;;;;;;;0.50;0.50;;;;;;;9.94;100.00;96488.47;29396;232;63015;-89
2024/04/04 01:08:21;;;;;;;0.50;0.50;;;;;;;9.94;100.00;96488.47;29396;202;63004;-91
2024/04/04 01:08:52;;;;;;;0.50;0.50;;;;;;;9.94;100.00;96491.16;29396;230;63009;-90
2024/04/04 01:09:23;;;;;;;0.50;0.50;;;;;;;9.94;100.00;96493.88;29396;254;63004;-91
2024/04/04 01:09:55;;;;;;;0.50;0.50;;;;;;;9.92;100.00;96496.09;29396;202;63022;-91
2024/04/04 01:10:26;;;;;;;0.45;0.45;;;;;;;9.92;100.00;96487.97;29396;256;63004;-90
2024/04/04 01:10:58;;;;;;;0.50;0.50;;;;;;;9.95;100.00;96495.50;29396;364;63009;-90
2024/04/04 01:11:29;;;;;;;0.50;0.50;;;;;;;9.97;100.00;96492.50;29396;257;63001;-92
2024/04/04 01:12:01;;;;;;;0.50;0.50;;;;;;;10.00;100.00;96494.59;29395;228;64013;-89
2024/04/04 01:12:32;;;;;;;0.50;0.50;;;;;;;10.00;100.00;96486.47;29396;425;63005;-88
2024/04/04 01:13:04;;;;;;;0.50;0.50;;;;;;;9.99;100.00;96499.22;29396;204;63009;-91
2024/04/04 01:13:36;;;;;;;0.50;0.50;;;;;;;9.97;100.00;96498.72;29396;317;63005;-91
2024/04/04 01:14:09;;;;;;;0.50;0.50;;;;;;;9.97;100.00;96492.50;29396;233;63009;-90
2024/04/04 01:14:40;;;;;;;0.50;0.50;;;;;;;9.96;100.00;96490.88;29396;244;63004;-90
2024/04/04 01:15:11;;;;;;;0.50;0.50;;;;;;;9.94;100.00;96493.09;29396;219;63009;-91
2024/04/04 01:15:43;;;;;;;0.50;0.50;;;;;;;9.94;100.00;96499.31;29397;229;63004;-88
2024/04/04 01:16:14;;;;;;;0.50;0.50;;;;;;;9.91;100.00;96499.91;29397;213;63009;-91
2024/04/04 01:16:48;;;;;;;0.50;0.50;;;;;;;9.81;100.00;96481.09;29397;202;63016;-92
2024/04/04 01:17:20;;;;;;;0.50;0.50;;;;;;;9.92;100.00;96484.44;29396;256;64013;-89
2024/04/04 01:17:52;;;;;;;0.50;0.50;;;;;;;9.92;100.00;96485.25;29397;203;63005;-91
2024/04/04 01:18:24;;;;;;;0.50;0.50;;;;;;;9.91;100.00;96497.19;29397;305;63009;-90
2024/04/04 01:18:55;;;;;;;0.50;0.50;;;;;;;9.91;100.00;96486.34;29397;246;63005;-90
2024/04/04 01:19:27;;;;;;;0.50;0.50;;;;;;;9.90;100.00;96487.44;29397;238;63009;-89
2024/04/04 01:19:58;;;;;;;0.50;0.50;;;;;;;9.89;100.00;96485.84;29397;197;63005;-90
2024/04/04 01:20:29;;;;;;;0.50;0.50;;;;;;;9.81;100.00;96472.97;29397;268;63009;-90
2024/04/04 01:21:01;;;;;;;0.50;0.50;;;;;;;9.88;100.00;96484.22;29397;207;63005;-89
2024/04/04 01:21:33;;;;;;;0.50;0.50;;;;;;;9.79;100.00;96480.59;29397;202;63009;-90
2024/04/04 01:22:05;;;;;;;0.50;0.50;;;;;;;9.86;100.00;96486.44;29397;254;63004;-92
2024/04/04 01:22:36;;;;;;;0.50;0.50;;;;;;;9.85;100.00;96484.81;29396;232;64013;-91
2024/04/04 01:23:08;;;;;;;0.50;0.50;;;;;;;9.80;100.00;96476.78;29397;249;63004;-89
2024/04/04 01:23:41;;;;;;;0.50;0.50;;;;;;;9.85;100.00;96492.94;29397;247;63009;-90
2024/04/04 01:24:13;;;;;;;0.50;0.50;;;;;;;9.85;100.00;96490.25;29397;250;63004;-90
2024/04/04 01:24:45;;;;;;;0.50;0.50;;;;;;;9.83;100.00;96492.44;29397;216;63008;-90
2024/04/04 01:25:16;;;;;;;0.50;0.50;;;;;;;9.83;100.00;96489.72;29397;210;63005;-90
2024/04/04 01:25:47;;;;;;;0.50;0.50;;;;;;;9.83;100.00;96487.03;29396;255;63009;-91
2024/04/04 01:26:18;;;;;;;0.50;0.50;;;;;;;9.85;100.00;96487.53;29395;406;64009;-91
2024/04/04 01:26:50;;;;;;;0.50;0.50;;;;;;;9.88;100.00;96489.66;29397;202;63009;-90
2024/04/04 01:27:21;;;;;;;0.50;0.50;;;;;;;9.88;100.00;96489.66;29397;197;63005;-90
2024/04/04 01:27:54;;;;;;;0.50;0.50;;;;;;;9.78;100.00;96473.56;29397;241;63009;-90
2024/04/04 01:28:25;;;;;;;0.50;0.50;;;;;;;9.86;100.00;96485.63;29396;224;63005;-84
2024/04/04 01:28:56;;;;;;;0.50;0.50;;;;;;;9.84;100.00;96491.34;29396;223;63009;-91
2024/04/04 01:29:28;;;;;;;0.50;0.50;;;;;;;9.81;100.00;96489.22;29397;333;63004;-89
2024/04/04 01:29:59;;;;;;;0.50;0.50;;;;;;;9.79;100.00;96491.44;29396;225;63025;-88
2024/04/04 01:30:31;;;;;;;0.50;0.50;;;;;;;9.77;100.00;96499.03;29396;398;63004;-91
2024/04/04 01:31:03;;;;;;;0.50;0.50;;;;;;;9.76;100.00;96497.44;29396;370;63009;-88
2024/04/04 01:31:34;;;;;;;0.50;0.50;;;;;;;9.77;100.00;96500.94;29395;196;64009;-90
2024/04/04 01:32:05;;;;;;;0.50;0.50;;;;;;;9.74;100.00;96499.62;29396;250;63013;-91
2024/04/04 01:32:37;;;;;;;0.50;0.50;;;;;;;9.77;100.00;96500.94;29396;244;63004;-89
2024/04/04 01:33:08;;;;;;;0.50;0.50;;;;;;;9.80;100.00;96501.16;29396;266;63021;-92
2024/04/04 01:33:39;;;;;;;0.50;0.50;;;;;;;9.85;100.00;96501.09;29396;312;63005;-90
2024/04/04 01:34:11;;;;;;;0.50;0.50;;;;;;;9.78;100.00;96494.44;29395;436;64014;-91
2024/04/04 01:34:42;;;;;;;0.50;0.50;;;;;;;9.83;100.00;96495.16;29396;248;63005;-90
2024/04/04 01:35:13;;;;;;;0.50;0.50;;;;;;;9.82;100.00;96498.16;29396;216;63009;-89
2024/04/04 01:35:44;;;;;;;0.50;0.50;;;;;;;9.81;100.00;96505.47;29396;222;63005;-91
2024/04/04 01:36:18;;;;;;;0.50;0.50;;;;;;;9.81;100.00;96505.47;29396;227;63009;-89
2024/04/04 01:36:50;;;;;;;0.50;0.50;;;;;;;9.80;100.00;96493.03;29396;238;63005;-89
2024/04/04 01:37:21;;;;;;;0.50;0.50;;;;;;;9.79;100.00;96496.84;29396;224;63009;-91
2024/04/04 01:37:52;;;;;;;0.50;0.50;;;;;;;9.79;100.00;96502.25;29395;266;64009;-89
2024/04/04 01:38:24;;;;;;;0.50;0.50;;;;;;;9.78;100.00;96500.66;29396;224;63009;-89
2024/04/04 01:38:55;;;;;;;0.50;0.50;;;;;;;9.78;100.00;96497.94;29396;206;63004;-90
2024/04/04 01:39:26;;;;;;;0.50;0.50;;;;;;;9.67;100.00;96485.69;29396;290;63009;-90
2024/04/04 01:39:58;;;;;;;0.50;0.50;;;;;;;9.77;100.00;96504.47;29396;385;63004;-90
2024/04/04 01:40:30;;;;;;;0.50;0.50;;;;;;;9.78;100.00;96507.97;29396;197;63009;-90
2024/04/04 01:41:01;;;;;;;0.40;0.40;;;;;;;9.70;100.00;96493.22;29396;249;63005;-91
2024/04/04 01:41:33;;;;;;;0.50;0.50;;;;;;;9.77;100.00;96509.87;29396;418;63009;-91
2024/04/04 01:42:04;;;;;;;0.50;0.50;;;;;;;9.77;100.00;96503.66;29396;220;63005;-90
2024/04/04 01:42:35;;;;;;;0.50;0.50;;;;;;;9.67;100.00;96504.66;29396;409;63005;-90
2024/04/04 01:43:07;;;;;;;0.50;0.50;;;;;;;9.79;100.00;96506.88;29395;202;64009;-90
2024/04/04 01:43:38;;;;;;;0.50;0.50;;;;;;;9.78;100.00;96506.06;29396;237;63009;-90
2024/04/04 01:44:09;;;;;;;0.50;0.50;;;;;;;9.77;100.00;96499.03;29396;203;63005;-90
2024/04/04 01:44:41;;;;;;;0.50;0.50;;;;;;;9.78;100.00;96506.06;29396;352;63009;-89
2024/04/04 01:45:12;;;;;;;0.50;0.50;;;;;;;9.77;100.00;96503.66;29396;241;63004;-88
2024/04/04 01:45:43;;;;;;;0.50;0.50;;;;;;;9.75;100.00;96502.06;29396;249;63009;-89
2024/04/04 01:46:15;;;;;;;0.50;0.50;;;;;;;9.77;100.00;96507.19;29396;187;63004;-90
2024/04/04 01:46:47;;;;;;;0.50;0.50;;;;;;;9.76;100.00;96508.28;29396;215;63009;-91
2024/04/04 01:47:19;;;;;;;0.50;0.50;;;;;;;9.78;100.00;96511.50;29395;227;64008;-90
2024/04/04 01:47:50;;;;;;;0.50;0.50;;;;;;;9.70;100.00;96498.66;29396;240;63008;-89
2024/04/04 01:48:21;;;;;;;0.50;0.50;;;;;;;9.81;100.00;96513.62;29396;219;63005;-91
2024/04/04 01:48:53;;;;;;;0.50;0.50;;;;;;;9.86;100.00;96501.87;29396;223;63009;-91
2024/04/04 01:49:24;;;;;;;0.50;0.50;;;;;;;9.86;100.00;96499.97;29395;227;64009;-90
2024/04/04 01:50:02;;;;;;;0.50;0.50;;;;;;;9.85;100.00;96498.38;29396;213;63009;-89
2024/04/04 01:50:39;;;;;;;0.50;0.50;;;;;;;9.85;100.00;96500.28;29418;259;63005;-90
2024/04/04 01:51:10;;;;;;;0.45;0.45;;;;;;;9.84;100.00;96499.47;29396;249;63009;-91
2024/04/04 01:51:42;;;;;;;0.50;0.50;;;;;;;9.84;100.00;96495.97;29396;223;63005;-92
2024/04/04 01:52:14;;;;;;;0.50;0.50;;;;;;;9.74;100.00;96494.22;29396;240;63009;-89
2024/04/04 01:52:45;;;;;;;0.50;0.50;;;;;;;9.83;100.00;96500.56;29396;406;63004;-92
2024/04/04 01:53:17;;;;;;;0.50;0.50;;;;;;;9.85;100.00;96498.38;29395;404;64013;-90
2024/04/04 01:53:48;;;;;;;0.50;0.50;;;;;;;9.85;100.00;96500.28;29396;324;63004;-91
2024/04/04 01:54:23;;;;;;;0.50;0.50;;;;;;;9.85;100.00;96494.84;29396;408;63009;-90
2024/04/04 01:54:54;;;;;;;0.50;0.50;;;;;;;9.84;100.00;96496.75;29396;528;63011;-91
2024/04/04 01:55:29;;;;;;;0.50;0.50;;;;;;;9.84;100.00;96504.09;29396;386;63009;-91
2024/04/04 01:56:03;;;;;;;0.50;0.50;;;;;;;9.84;100.00;96499.47;29396;209;63005;-90
2024/04/04 01:56:34;;;;;;;0.50;0.50;;;;;;;9.86;100.00;96501.87;29396;209;63009;-90
2024/04/04 01:57:06;;;;;;;0.50;0.50;;;;;;;9.89;100.00;96498.59;29396;500;63005;-90
2024/04/04 01:57:37;;;;;;;0.50;0.50;;;;;;;9.91;100.00;96504.50;29396;233;63024;-89
2024/04/04 01:58:08;;;;;;;0.50;0.50;;;;;;;9.90;100.00;96498.28;29396;202;63005;-90
2024/04/04 01:58:39;;;;;;;0.50;0.50;;;;;;;9.90;100.00;96503.72;29395;261;64013;-90
2024/04/04 01:59:11;;;;;;;0.50;0.50;;;;;;;9.91;100.00;96505.31;29396;426;63005;-90
2024/04/04 01:59:42;;;;;;;0.50;0.50;;;;;;;9.91;100.00;96505.31;29396;196;63009;-90
2024/04/04 02:00:15;;;;;;;0.50;0.50;;;;;;;9.92;100.00;96501.50;29396;318;63004;-90
2024/04/04 02:00:48;;;;;;;0.50;0.50;;;;;;;9.93;100.00;96497.69;29396;230;63009;-88
2024/04/04 02:01:19;;;;;;;0.50;0.50;;;;;;;9.94;100.00;96503.91;29396;256;63004;-91
2024/04/04 02:01:51;;;;;;;0.45;0.45;;;;;;;9.91;100.00;96497.19;29396;215;63009;-90
2024/04/04 02:02:22;;;;;;;0.43;0.43;;;;;;;9.90;100.00;96492.88;29396;238;63004;-91
2024/04/04 02:02:54;;;;;;;0.50;0.50;;;;;;;9.90;100.00;96492.88;29396;323;63008;-91
2024/04/04 02:03:25;;;;;;;0.50;0.50;;;;;;;9.90;100.00;96501.00;29396;199;63010;-90
2024/04/04 02:03:56;;;;;;;0.50;0.50;;;;;;;9.80;100.00;96476.78;29395;338;64014;-89
2024/04/04 02:04:28;;;;;;;0.50;0.50;;;;;;;9.88;100.00;96484.22;29396;245;63005;-91
2024/04/04 02:04:59;;;;;;;0.50;0.50;;;;;;;9.78;100.00;96476.28;29396;272;63009;-90
2024/04/04 02:05:32;;;;;;;0.50;0.50;;;;;;;9.88;100.00;96481.53;29396;265;63013;-90
2024/04/04 02:06:04;;;;;;;0.50;0.50;;;;;;;9.89;100.00;96485.84;29396;228;63009;-90
2024/04/04 02:06:35;;;;;;;0.50;0.50;;;;;;;9.88;100.00;96484.22;29395;252;64009;-90
2024/04/04 02:07:11;;;;;;;0.50;0.50;;;;;;;9.89;100.00;96479.63;29396;261;63009;-89
2024/04/04 02:07:42;;;;;;;0.50;0.50;;;;;;;9.92;100.00;96479.03;29396;202;63000;-91
2024/04/04 02:08:13;;;;;;;0.50;0.50;;;;;;;9.91;100.00;96472.78;29396;391;63009;-89
2024/04/04 02:08:45;;;;;;;0.50;0.50;;;;;;;9.90;100.00;96478.50;29396;259;63007;-89
2024/04/04 02:09:16;;;;;;;0.50;0.50;;;;;;;9.90;100.00;96476.59;29395;213;64034;-90
2024/04/04 02:09:47;;;;;;;0.43;0.43;;;;;;;9.91;100.00;96474.69;29396;213;63004;-90
2024/04/04 02:10:18;;;;;;;0.50;0.50;;;;;;;9.90;100.00;96479.31;29396;197;63008;-92
2024/04/04 02:10:50;;;;;;;0.50;0.50;;;;;;;9.89;100.00;96480.41;29396;301;63005;-89
2024/04/04 02:11:21;;;;;;;0.50;0.50;;;;;;;9.92;100.00;96482.53;29396;202;63009;-90
2024/04/04 02:11:55;;;;;;;0.50;0.50;;;;;;;9.95;100.00;96479.22;29396;241;63000;-91
2024/04/04 02:12:26;;;;;;;0.40;0.40;;;;;;;9.94;100.00;96477.63;29395;272;64013;-89
2024/04/04 02:12:58;;;;;;;0.50;0.50;;;;;;;9.96;100.00;96480.84;29396;229;63005;-89
2024/04/04 02:13:30;;;;;;;0.50;0.50;;;;;;;9.97;100.00;96477.03;29396;198;63009;-88
2024/04/04 02:14:01;;;;;;;0.50;0.50;;;;;;;10.02;100.00;96474.22;29395;233;64009;-89
2024/04/04 02:14:33;;;;;;;0.50;0.50;;;;;;;10.02;100.00;96485.06;29396;233;63009;-90
2024/04/04 02:15:06;;;;;;;0.50;0.50;;;;;;;10.00;100.00;96486.47;29396;403;63004;-91
2024/04/04 02:15:41;;;;;;;0.50;0.50;;;;;;;9.98;100.00;96489.47;29397;246;63009;-90
2024/04/04 02:16:13;;;;;;;0.50;0.50;;;;;;;10.00;100.00;96486.47;29395;354;64009;-91
2024/04/04 02:16:45;;;;;;;0.50;0.50;;;;;;;10.00;100.00;96487.28;29396;197;63008;-90
2024/04/04 02:17:17;;;;;;;0.50;0.50;;;;;;;9.99;100.00;96485.66;29396;211;63004;-89
2024/04/04 02:17:49;;;;;;;0.50;0.50;;;;;;;10.00;100.00;96478.34;29396;328;63008;-90
2024/04/04 02:18:20;;;;;;;0.50;0.50;;;;;;;10.00;100.00;96476.44;29396;227;63005;-92
2024/04/04 02:18:54;;;;;;;0.77;0.77;;;;;;;9.99;100.00;96480.25;29396;225;63009;-90
2024/04/04 02:19:25;;;;;;;0.50;0.50;;;;;;;9.97;100.00;96487.87;29397;203;63005;-89
2024/04/04 02:19:56;;;;;;;0.50;0.50;;;;;;;9.96;100.00;96480.84;29396;426;63016;-89
2024/04/04 02:20:27;;;;;;;0.50;0.50;;;;;;;9.94;100.00;96482.25;29396;266;63013;-90
2024/04/04 02:20:59;;;;;;;0.50;0.50;;;;;;;9.92;100.00;96484.44;29395;257;63009;-90
2024/04/04 02:21:31;;;;;;;0.50;0.50;;;;;;;9.91;100.00;96483.62;29394;222;64009;-91
2024/04/04 02:22:03;;;;;;;0.50;0.50;;;;;;;9.89;100.00;96485.84;29397;259;63009;-90
2024/04/04 02:22:37;;;;;;;0.40;0.40;;;;;;;9.89;100.00;96480.41;29394;212;64004;-91
2024/04/04 02:23:09;;;;;;;0.50;0.50;;;;;;;9.91;100.00;96488.25;29395;253;63009;-90
2024/04/04 02:23:40;;;;;;;0.50;0.50;;;;;;;9.83;100.00;96470.75;29395;277;63004;-88
2024/04/04 02:24:13;;;;;;;0.50;0.50;;;;;;;9.99;100.00;96482.16;29393;399;64013;-89
2024/04/04 02:24:44;;;;;;;0.50;0.50;;;;;;;9.99;100.00;96485.66;29395;291;63004;-91
2024/04/04 02:25:17;;;;;;;0.50;0.50;;;;;;;10.00;100.00;96481.84;29395;486;63009;-89
2024/04/04 02:25:48;;;;;;;0.50;0.50;;;;;;;9.97;100.00;96477.03;29395;295;63005;-90
2024/04/04 02:26:20;;;;;;;0.50;0.50;;;;;;;9.94;100.00;96476.81;29395;221;63009;-90
2024/04/04 02:26:55;;;;;;;0.50;0.50;;;;;;;9.91;100.00;96478.22;29395;265;63010;-92
2024/04/04 02:27:26;;;;;;;0.50;0.50;;;;;;;9.89;100.00;96477.72;29395;256;63009;-89
2024/04/04 02:27:57;;;;;;;0.50;0.50;;;;;;;9.92;100.00;96481.72;29395;243;63005;-91
2024/04/04 02:28:33;;;;;;;0.50;0.50;;;;;;;9.92;100.00;96479.03;29395;218;63009;-90
2024/04/04 02:29:09;;;;;;;0.50;0.50;;;;;;;9.91;100.00;96483.62;29393;226;64009;-91
2024/04/04 02:29:46;;;;;;;0.50;0.50;;;;;;;9.91;100.00;96485.53;29395;298;63009;-89
2024/04/04 02:30:23;;;;;;;0.50;0.50;;;;;;;9.88;100.00;96484.22;29395;232;63013;-91
2024/04/04 02:30:54;;;;;;;0.50;0.50;;;;;;;9.91;100.00;96489.06;29395;213;63009;-89
2024/04/04 02:31:30;;;;;;;0.50;0.50;;;;;;;9.91;100.00;96491.75;29393;247;64009;-91
2024/04/04 02:32:03;;;;;;;0.50;0.50;;;;;;;9.92;100.00;96484.44;29395;202;63008;-90